createdAt,value
2022-12-22T00:01:33.464Z,7.47
2022-12-22T00:04:18.918Z,7.03
2022-12-22T00:07:04.447Z,7.20
2022-12-22T00:09:50.053Z,7.90
2022-12-22T00:12:37.583Z,6.73
2022-12-22T00:15:24.077Z,7.63
2022-12-22T00:18:09.431Z,7.40
2022-12-22T00:20:54.740Z,14.43
2022-12-22T00:23:39.597Z,8.40
2022-12-22T00:26:27.469Z,7.70
2022-12-22T00:29:12.559Z,7.73
2022-12-22T00:31:59.248Z,8.80
2022-12-22T00:34:47.745Z,7.27
2022-12-22T00:37:33.865Z,7.87
2022-12-22T00:40:20.290Z,7.67
2022-12-22T00:43:05.271Z,8.00
2022-12-22T00:45:50.142Z,8.37
2022-12-22T00:48:44.587Z,7.70
2022-12-22T00:51:31.140Z,8.87
2022-12-22T00:54:16.552Z,7.77
2022-12-22T00:57:01.976Z,7.80
2022-12-22T00:59:47.445Z,7.17
2022-12-22T01:02:33.104Z,7.57
2022-12-22T01:05:18.345Z,7.27
2022-12-22T01:08:03.522Z,8.37
2022-12-22T01:10:48.911Z,7.13
2022-12-22T01:13:34.868Z,6.83
2022-12-22T01:16:20.408Z,6.90
2022-12-22T01:19:05.623Z,7.13
2022-12-22T01:21:50.412Z,9.10
2022-12-22T01:24:37.327Z,8.40
2022-12-22T01:27:23.276Z,7.10
2022-12-22T01:30:09.174Z,8.20
2022-12-22T01:32:53.993Z,6.87
2022-12-22T01:35:45.478Z,9.47
2022-12-22T01:38:30.518Z,7.00
2022-12-22T01:41:17.382Z,9.97
2022-12-22T01:44:03.368Z,7.63
2022-12-22T01:46:56.163Z,7.77
2022-12-22T01:50:02.681Z,7.80
2022-12-22T01:52:54.707Z,7.73
2022-12-22T01:55:42.714Z,8.43
2022-12-22T01:58:41.773Z,7.13
2022-12-22T02:01:27.096Z,7.13
2022-12-22T02:04:12.320Z,8.47
2022-12-22T02:07:00.809Z,7.50
2022-12-22T02:10:07.793Z,7.40
2022-12-22T02:13:26.369Z,8.43
2022-12-22T02:16:14.259Z,7.03
2022-12-22T02:19:07.989Z,7.33
2022-12-22T02:22:08.437Z,6.27
2022-12-22T02:25:05.940Z,6.90
2022-12-22T02:27:54.674Z,6.30
2022-12-22T02:30:40.062Z,5.83
2022-12-22T02:33:26.528Z,6.33
2022-12-22T02:36:24.140Z,5.87
2022-12-22T02:39:28.100Z,5.47
2022-12-22T02:42:28.124Z,5.93
2022-12-22T02:45:38.895Z,6.60
2022-12-22T02:48:34.650Z,7.20
2022-12-22T02:51:25.659Z,6.13
2022-12-22T02:54:13.056Z,8.07
2022-12-22T02:56:59.494Z,5.90
2022-12-22T02:59:44.603Z,7.17
2022-12-22T03:02:31.702Z,6.47
2022-12-22T03:05:19.437Z,6.73
2022-12-22T03:08:08.157Z,6.17
2022-12-22T03:10:53.289Z,7.07
2022-12-22T03:13:38.181Z,7.83
2022-12-22T03:16:23.718Z,6.90
2022-12-22T03:19:08.940Z,6.27
2022-12-22T03:21:53.834Z,5.73
2022-12-22T03:24:38.666Z,7.17
2022-12-22T03:27:05.270Z,5.97
2022-12-22T03:29:31.766Z,6.23
2022-12-22T03:31:58.283Z,6.43
2022-12-22T03:34:24.977Z,6.60
2022-12-22T03:36:51.556Z,5.47
2022-12-22T03:42:19.277Z,5.70
2022-12-22T03:45:04.227Z,5.90
2022-12-22T03:47:33.031Z,4.90
2022-12-22T03:49:59.526Z,6.20
2022-12-22T03:52:26.064Z,5.40
2022-12-22T03:54:52.611Z,5.43
2022-12-22T03:57:19.299Z,6.77
2022-12-22T03:59:45.782Z,4.80
2022-12-22T04:02:12.330Z,6.23
2022-12-22T04:04:39.173Z,4.97
2022-12-22T04:07:06.115Z,4.13
2022-12-22T04:09:33.272Z,3.80
2022-12-22T04:12:18.375Z,4.63
2022-12-22T04:14:44.863Z,3.70
2022-12-22T04:17:11.352Z,4.33
2022-12-22T04:19:37.819Z,3.50
2022-12-22T04:22:04.326Z,3.57
2022-12-22T04:24:31.174Z,5.13
2022-12-22T04:26:57.788Z,3.13
2022-12-22T04:29:24.354Z,4.97
2022-12-22T04:31:50.918Z,3.43
2022-12-22T04:34:17.459Z,3.90
2022-12-22T04:36:43.961Z,4.67
2022-12-22T04:39:10.471Z,3.20
2022-12-22T04:41:37.010Z,3.97
2022-12-22T04:44:03.613Z,5.10
2022-12-22T04:46:30.225Z,3.97
2022-12-22T04:49:00.262Z,4.77
2022-12-22T04:51:28.328Z,2.97
2022-12-22T04:53:54.804Z,2.80
2022-12-22T04:56:21.508Z,5.30
2022-12-22T04:58:47.951Z,3.40
2022-12-22T05:01:20.247Z,3.33
2022-12-22T05:03:47.290Z,3.23
2022-12-22T05:06:14.615Z,2.70
2022-12-22T05:08:41.353Z,3.90
2022-12-22T05:11:08.207Z,3.00
2022-12-22T05:13:35.046Z,3.60
2022-12-22T05:16:05.822Z,4.43
2022-12-22T05:18:33.717Z,3.30
2022-12-22T05:21:03.825Z,6.07
2022-12-22T05:23:30.556Z,3.27
2022-12-22T05:25:57.025Z,3.20
2022-12-22T05:28:23.620Z,4.07
2022-12-22T05:30:50.131Z,3.87
2022-12-22T05:33:16.599Z,4.43
2022-12-22T05:35:43.100Z,4.80
2022-12-22T05:38:09.622Z,4.00
2022-12-22T05:40:36.202Z,4.83
2022-12-22T05:43:03.095Z,3.90
2022-12-22T05:45:29.561Z,4.43
2022-12-22T05:47:56.030Z,5.10
2022-12-22T05:50:24.899Z,4.70
2022-12-22T05:52:51.560Z,4.23
2022-12-22T05:55:18.074Z,5.00
2022-12-22T05:57:44.611Z,4.33
2022-12-22T06:00:14.503Z,4.87
2022-12-22T06:02:42.446Z,5.50
2022-12-22T06:05:10.551Z,4.37
2022-12-22T06:07:37.720Z,5.43
2022-12-22T06:10:12.234Z,4.50
2022-12-22T06:12:39.719Z,4.67
2022-12-22T06:15:07.602Z,5.13
2022-12-22T06:17:37.816Z,5.40
2022-12-22T06:20:10.414Z,7.50
2022-12-22T06:22:36.969Z,7.63
2022-12-22T06:25:03.818Z,6.30
2022-12-22T06:27:30.296Z,7.60
2022-12-22T06:29:56.921Z,8.07
2022-12-22T06:32:23.414Z,7.67
2022-12-22T06:34:49.888Z,7.87
2022-12-22T06:37:16.377Z,8.23
2022-12-22T06:39:42.835Z,7.60
2022-12-22T06:42:29.477Z,8.27
2022-12-22T06:44:56.099Z,8.03
2022-12-22T06:47:22.692Z,7.87
2022-12-22T06:49:49.747Z,7.17
2022-12-22T06:52:16.271Z,7.90
2022-12-22T06:54:42.838Z,7.33
2022-12-22T06:57:09.556Z,7.43
2022-12-22T06:59:36.056Z,10.17
2022-12-22T07:02:02.688Z,8.50
2022-12-22T07:04:30.786Z,8.40
2022-12-22T07:06:57.487Z,9.40
2022-12-22T07:09:23.982Z,11.80
2022-12-22T07:11:50.461Z,10.50
2022-12-22T07:14:19.436Z,12.23
2022-12-22T07:16:47.152Z,11.43
2022-12-22T07:19:14.483Z,10.17
2022-12-22T07:21:40.951Z,10.93
2022-12-22T07:24:07.757Z,11.27
2022-12-22T07:26:34.215Z,11.80
2022-12-22T07:29:00.737Z,11.60
2022-12-22T07:31:27.306Z,11.97
2022-12-22T07:33:53.843Z,10.53
2022-12-22T07:36:20.744Z,11.07
2022-12-22T07:38:50.762Z,11.97
2022-12-22T07:41:37.715Z,10.77
2022-12-22T07:44:05.076Z,11.07
2022-12-22T07:46:34.402Z,11.60
2022-12-22T07:49:19.532Z,10.73
2022-12-22T07:51:46.163Z,10.70
2022-12-22T07:54:14.539Z,11.57
2022-12-22T07:56:41.527Z,13.73
2022-12-22T07:59:08.492Z,11.87
2022-12-22T08:01:35.135Z,12.83
2022-12-22T08:04:01.750Z,14.37
2022-12-22T08:06:28.463Z,14.83
2022-12-22T08:08:55.262Z,15.27
2022-12-22T08:11:21.788Z,16.00
2022-12-22T08:13:49.881Z,15.67
2022-12-22T08:16:17.232Z,16.97
2022-12-22T08:18:44.562Z,21.83
2022-12-22T08:21:11.082Z,21.73
2022-12-22T08:23:37.685Z,24.70
2022-12-22T08:26:22.543Z,22.57
2022-12-22T08:29:13.787Z,20.50
2022-12-22T08:31:41.288Z,22.13
2022-12-22T08:34:10.357Z,23.10
2022-12-22T08:36:40.288Z,24.40
2022-12-22T08:39:07.785Z,25.03
2022-12-22T08:41:51.128Z,25.47
2022-12-22T08:44:28.895Z,28.43
2022-12-22T08:46:57.248Z,26.03
2022-12-22T08:49:24.311Z,23.20
2022-12-22T08:51:51.398Z,24.07
2022-12-22T08:54:18.569Z,28.27
2022-12-22T08:56:45.551Z,25.10
2022-12-22T08:59:12.865Z,25.00
2022-12-22T09:01:45.865Z,26.27
2022-12-22T09:04:13.894Z,25.27
2022-12-22T09:06:41.600Z,29.70
2022-12-22T09:09:11.174Z,26.40
2022-12-22T09:11:38.205Z,22.93
2022-12-22T09:14:05.573Z,23.90
2022-12-22T09:16:33.945Z,21.87
2022-12-22T09:19:01.573Z,20.37
2022-12-22T09:21:29.017Z,21.90
2022-12-22T09:23:56.799Z,19.73
2022-12-22T09:26:25.569Z,18.83
2022-12-22T09:28:52.229Z,16.10
2022-12-22T09:31:20.205Z,19.17
2022-12-22T09:33:47.104Z,16.50
2022-12-22T09:36:19.664Z,14.20
2022-12-22T09:38:46.974Z,15.50
2022-12-22T09:41:20.182Z,15.80
2022-12-22T09:43:47.339Z,16.37
2022-12-22T09:46:30.179Z,15.73
2022-12-22T09:48:57.345Z,15.80
2022-12-22T09:51:27.020Z,16.47
2022-12-22T09:54:03.166Z,17.97
2022-12-22T09:56:30.448Z,16.67
2022-12-22T09:58:58.341Z,18.40
2022-12-22T10:01:30.815Z,18.27
2022-12-22T10:04:31.604Z,17.73
2022-12-22T10:07:01.199Z,19.23
2022-12-22T10:12:20.577Z,18.47
2022-12-22T10:14:49.311Z,21.47
2022-12-22T10:17:33.986Z,21.97
2022-12-22T10:20:19.227Z,22.40
2022-12-22T10:22:49.912Z,21.93
2022-12-22T10:26:17.230Z,21.67
2022-12-22T10:28:28.025Z,25.63
2022-12-22T10:31:11.555Z,22.07
2022-12-22T10:33:45.882Z,21.87
2022-12-22T10:36:14.723Z,23.37
2022-12-22T10:38:56.501Z,22.93
2022-12-22T10:41:27.178Z,21.20
2022-12-22T10:43:57.666Z,26.13
2022-12-22T10:46:38.315Z,26.40
2022-12-22T10:49:25.553Z,24.23
2022-12-22T10:51:54.213Z,24.77
2022-12-22T10:54:24.901Z,22.63
2022-12-22T10:57:03.562Z,26.87
2022-12-22T10:59:31.289Z,27.87
2022-12-22T11:02:28.637Z,24.87
2022-12-22T11:05:02.477Z,26.00
2022-12-22T11:07:32.625Z,41.83
2022-12-22T11:09:59.154Z,50.77
2022-12-22T11:12:28.450Z,30.57
2022-12-22T11:15:02.127Z,25.60
2022-12-22T11:17:31.333Z,27.43
2022-12-22T11:20:17.050Z,35.10
2022-12-22T11:22:46.316Z,25.70
2022-12-22T11:25:16.301Z,42.30
2022-12-22T11:28:10.808Z,31.27
2022-12-22T11:31:10.198Z,32.17
2022-12-22T11:33:58.160Z,26.13
2022-12-22T11:36:40.658Z,32.60
2022-12-22T11:39:23.314Z,24.77
2022-12-22T11:42:00.920Z,26.23
2022-12-22T11:44:45.803Z,27.87
2022-12-22T11:47:46.640Z,22.60
2022-12-22T11:50:58.675Z,23.23
2022-12-22T11:53:52.314Z,18.37
2022-12-22T11:56:23.554Z,16.40
2022-12-22T11:59:01.928Z,15.30
2022-12-22T12:01:28.384Z,15.90
2022-12-22T12:04:13.672Z,16.43
2022-12-22T12:06:44.843Z,15.37
2022-12-22T12:09:22.013Z,19.33
2022-12-22T12:12:04.499Z,17.80
2022-12-22T12:14:49.623Z,15.73
2022-12-22T12:17:43.176Z,15.87
2022-12-22T12:20:41.191Z,18.67
2022-12-22T12:23:28.112Z,17.30
2022-12-22T12:26:27.813Z,14.57
2022-12-22T12:29:13.195Z,16.63
2022-12-22T12:31:49.503Z,17.80
2022-12-22T12:34:18.900Z,20.87
2022-12-22T12:36:51.450Z,20.77
2022-12-22T12:39:21.809Z,21.33
2022-12-22T12:42:00.117Z,20.83
2022-12-22T12:44:31.790Z,20.93
2022-12-22T12:47:06.559Z,19.63
2022-12-22T12:49:36.307Z,21.03
2022-12-22T12:52:07.664Z,22.47
2022-12-22T12:54:44.128Z,21.23
2022-12-22T12:57:22.907Z,19.83
2022-12-22T12:59:50.780Z,23.43
2022-12-22T13:02:37.922Z,22.20
2022-12-22T13:05:36.458Z,20.30
2022-12-22T13:08:32.278Z,20.07
2022-12-22T13:10:58.706Z,25.10
2022-12-22T13:13:28.172Z,21.03
2022-12-22T13:16:00.872Z,22.80
2022-12-22T13:18:30.581Z,21.33
2022-12-22T13:21:42.429Z,23.20
2022-12-22T13:24:23.500Z,24.07
2022-12-22T13:26:44.675Z,22.13
2022-12-22T13:29:16.957Z,17.53
2022-12-22T13:31:50.520Z,19.40
2022-12-22T13:34:20.016Z,23.00
2022-12-22T13:36:49.431Z,16.07
2022-12-22T13:39:16.911Z,17.33
2022-12-22T13:41:46.656Z,16.80
2022-12-22T13:44:20.296Z,13.53
2022-12-22T13:46:47.141Z,12.70
2022-12-22T13:49:36.177Z,17.33
2022-12-22T13:52:06.537Z,19.17
2022-12-22T13:54:37.395Z,13.93
2022-12-22T13:57:13.308Z,13.87
2022-12-22T13:59:43.868Z,18.27
2022-12-22T14:02:10.481Z,14.57
2022-12-22T14:04:41.923Z,11.20
2022-12-22T14:07:20.313Z,13.10
2022-12-22T14:09:50.221Z,14.80
2022-12-22T14:12:23.709Z,10.40
2022-12-22T14:14:52.800Z,16.37
2022-12-22T14:17:22.517Z,13.03
2022-12-22T14:20:00.757Z,13.23
2022-12-22T14:22:36.247Z,13.77
2022-12-22T14:25:19.616Z,15.13
2022-12-22T14:27:53.202Z,14.57
2022-12-22T14:30:43.395Z,13.37
2022-12-22T14:33:28.153Z,10.67
2022-12-22T14:36:13.935Z,11.60
2022-12-22T14:38:47.905Z,11.60
2022-12-22T14:41:51.422Z,14.00
2022-12-22T14:44:28.230Z,12.83
2022-12-22T14:47:12.045Z,12.70
2022-12-22T14:49:56.884Z,13.50
2022-12-22T14:52:33.677Z,13.47
2022-12-22T14:55:02.345Z,12.80
2022-12-22T14:57:42.314Z,13.40
2022-12-22T15:00:28.929Z,17.23
2022-12-22T15:02:58.275Z,13.47
2022-12-22T15:05:37.691Z,10.23
2022-12-22T15:08:08.923Z,11.57
2022-12-22T15:10:45.449Z,11.27
2022-12-22T15:13:24.107Z,11.83
2022-12-22T15:15:54.014Z,10.87
2022-12-22T15:18:25.849Z,10.10
2022-12-22T15:20:53.122Z,8.70
2022-12-22T15:23:19.616Z,10.53
2022-12-22T15:25:46.994Z,8.07
2022-12-22T15:28:13.716Z,9.07
2022-12-22T15:30:41.166Z,10.50
2022-12-22T15:33:16.171Z,9.00
2022-12-22T15:35:43.711Z,11.23
2022-12-22T15:38:19.972Z,13.13
2022-12-22T15:40:47.152Z,10.03
2022-12-22T15:43:54.004Z,14.40
2022-12-22T15:46:02.357Z,12.87
2022-12-22T15:48:33.165Z,14.70
2022-12-22T15:51:02.409Z,11.50
2022-12-22T15:53:29.828Z,11.07
2022-12-22T15:55:58.599Z,13.67
2022-12-22T15:58:30.990Z,14.00
2022-12-22T16:00:57.744Z,14.53
2022-12-22T16:03:24.344Z,14.53
2022-12-22T16:05:52.780Z,12.33
2022-12-22T16:08:22.916Z,14.27
2022-12-22T16:10:49.680Z,14.40
2022-12-22T16:13:16.703Z,10.90
2022-12-22T16:15:43.899Z,10.83
2022-12-22T16:18:12.156Z,14.13
2022-12-22T16:20:43.032Z,15.70
2022-12-22T16:23:18.859Z,12.93
2022-12-22T16:25:46.414Z,13.40
2022-12-22T16:28:17.567Z,15.10
2022-12-22T16:30:45.057Z,14.77
2022-12-22T16:33:12.782Z,17.20
2022-12-22T16:35:39.969Z,17.40
2022-12-22T16:38:08.178Z,15.77
2022-12-22T16:40:51.710Z,15.20
2022-12-22T16:46:11.954Z,16.40
2022-12-22T16:48:48.641Z,16.07
2022-12-22T16:51:38.819Z,15.70
2022-12-22T16:54:05.367Z,13.83
2022-12-22T16:56:32.213Z,16.83
2022-12-22T16:59:00.845Z,14.70
2022-12-22T17:01:50.337Z,16.53
2022-12-22T17:04:21.478Z,15.50
2022-12-22T17:06:49.890Z,16.00
2022-12-22T17:09:25.574Z,12.73
2022-12-22T17:11:54.173Z,18.40
2022-12-22T17:14:29.595Z,15.20
2022-12-22T17:16:56.069Z,14.50
2022-12-22T17:19:22.684Z,13.17
2022-12-22T17:21:50.537Z,15.47
2022-12-22T17:24:24.358Z,14.67
2022-12-22T17:26:54.426Z,12.07
2022-12-22T17:29:23.984Z,14.43
2022-12-22T17:31:51.135Z,11.80
2022-12-22T17:34:19.576Z,12.30
2022-12-22T17:36:49.068Z,14.80
2022-12-22T17:39:19.592Z,11.33
2022-12-22T17:41:50.650Z,10.23
2022-12-22T17:44:24.399Z,15.80
2022-12-22T17:46:51.056Z,11.63
2022-12-22T17:49:20.060Z,10.03
2022-12-22T17:51:47.060Z,10.67
2022-12-22T17:54:24.970Z,11.50
2022-12-22T17:56:54.429Z,11.03
2022-12-22T17:59:20.951Z,9.97
2022-12-22T18:01:47.579Z,12.20
2022-12-22T18:04:14.341Z,10.03
2022-12-22T18:06:42.565Z,10.03
2022-12-22T18:09:22.572Z,13.30
2022-12-22T18:11:49.494Z,11.73
2022-12-22T18:14:16.024Z,14.00
2022-12-22T18:16:44.017Z,12.50
2022-12-22T18:19:10.666Z,14.43
2022-12-22T18:21:37.342Z,15.63
2022-12-22T18:24:04.495Z,13.97
2022-12-22T18:26:31.460Z,16.93
2022-12-22T18:28:58.484Z,16.43
2022-12-22T18:31:25.351Z,18.70
2022-12-22T18:33:52.706Z,16.50
2022-12-22T18:36:27.668Z,18.07
2022-12-22T18:38:54.967Z,13.60
2022-12-22T18:41:24.030Z,14.63
2022-12-22T18:43:50.808Z,15.10
2022-12-22T18:46:18.162Z,19.20
2022-12-22T18:48:45.145Z,15.33
2022-12-22T18:51:23.393Z,12.83
2022-12-22T18:53:52.453Z,14.43
2022-12-22T18:56:19.255Z,11.53
2022-12-22T18:58:46.277Z,17.10
2022-12-22T19:01:26.102Z,14.17
2022-12-22T19:03:55.692Z,18.83
2022-12-22T19:06:23.114Z,15.00
2022-12-22T19:08:50.295Z,12.63
2022-12-22T19:11:21.352Z,16.67
2022-12-22T19:13:51.129Z,16.40
2022-12-22T19:16:22.972Z,13.23
2022-12-22T19:18:49.581Z,16.60
2022-12-22T19:21:18.049Z,17.23
2022-12-22T19:23:45.265Z,15.27
2022-12-22T19:26:24.376Z,14.53
2022-12-22T19:28:54.182Z,17.77
2022-12-22T19:31:30.467Z,12.83
2022-12-22T19:33:59.459Z,12.00
2022-12-22T19:36:28.346Z,12.23
2022-12-22T19:39:03.283Z,11.70
2022-12-22T19:41:48.176Z,14.73
2022-12-22T19:44:27.483Z,15.03
2022-12-22T19:46:55.306Z,12.03
2022-12-22T19:49:24.735Z,12.47
2022-12-22T19:51:51.494Z,18.73
2022-12-22T19:54:19.737Z,19.30
2022-12-22T19:56:50.528Z,17.17
2022-12-22T19:59:38.186Z,16.40
2022-12-22T20:02:21.181Z,18.33
2022-12-22T20:04:48.797Z,23.83
2022-12-22T20:07:20.984Z,20.63
2022-12-22T20:09:47.510Z,23.37
2022-12-22T20:12:37.815Z,18.53
2022-12-22T20:15:35.519Z,26.97
2022-12-22T20:18:03.843Z,23.13
2022-12-22T20:20:36.547Z,25.00
2022-12-22T20:23:21.932Z,27.43
2022-12-22T20:25:53.802Z,21.83
2022-12-22T20:28:23.051Z,30.90
2022-12-22T20:30:50.727Z,30.63
2022-12-22T20:33:20.402Z,34.63
2022-12-22T20:35:48.989Z,33.67
2022-12-22T20:38:20.041Z,35.00
2022-12-22T20:40:49.419Z,36.13
2022-12-22T20:43:21.238Z,32.53
2022-12-22T20:45:50.601Z,42.80
2022-12-22T20:48:39.292Z,50.73
2022-12-22T20:51:12.401Z,36.27
2022-12-22T20:53:38.919Z,41.67
2022-12-22T20:56:16.805Z,49.63
2022-12-22T20:58:43.322Z,32.97
2022-12-22T21:01:10.363Z,43.63
2022-12-22T21:03:36.949Z,45.63
2022-12-22T21:06:22.019Z,36.23
2022-12-22T21:08:48.553Z,28.67
2022-12-22T21:11:15.100Z,34.40
2022-12-22T21:13:41.579Z,35.43
2022-12-22T21:16:14.408Z,32.53
2022-12-22T21:18:41.034Z,28.50
2022-12-22T21:21:07.510Z,34.47
2022-12-22T21:23:34.002Z,33.60
2022-12-22T21:26:00.533Z,37.00
2022-12-22T21:28:35.943Z,31.77
2022-12-22T21:31:03.227Z,28.17
2022-12-22T21:33:29.818Z,27.80
2022-12-22T21:35:58.735Z,28.73
2022-12-22T21:38:28.795Z,31.10
2022-12-22T21:40:55.341Z,18.70
2022-12-22T21:43:21.827Z,23.27
2022-12-22T21:45:49.833Z,26.43
2022-12-22T21:48:18.967Z,29.23
2022-12-22T21:50:47.513Z,20.57
2022-12-22T21:53:19.807Z,31.30
2022-12-22T21:55:49.072Z,25.80
2022-12-22T21:58:15.781Z,26.17
2022-12-22T22:00:47.233Z,27.30
2022-12-22T22:03:14.379Z,21.53
2022-12-22T22:05:41.835Z,24.80
2022-12-22T22:08:11.350Z,18.93
2022-12-22T22:10:41.183Z,25.93
2022-12-22T22:13:08.415Z,23.23
2022-12-22T22:15:35.336Z,24.63
2022-12-22T22:18:06.903Z,20.50
2022-12-22T22:20:34.401Z,20.10
2022-12-22T22:23:01.606Z,21.73
2022-12-22T22:25:28.174Z,26.37
2022-12-22T22:27:59.579Z,18.40
2022-12-22T22:30:27.049Z,27.73
2022-12-22T22:32:54.668Z,18.30
2022-12-22T22:35:22.855Z,20.23
2022-12-22T22:37:53.260Z,24.43
2022-12-22T22:40:22.471Z,21.67
2022-12-22T22:42:49.467Z,24.57
2022-12-22T22:45:23.968Z,17.57
2022-12-22T22:47:51.706Z,18.93
2022-12-22T22:50:19.879Z,18.90
2022-12-22T22:52:46.526Z,17.37
2022-12-22T22:55:14.460Z,20.03
2022-12-22T22:57:42.234Z,17.90
2022-12-22T23:00:11.843Z,17.50
2022-12-22T23:02:39.081Z,18.37
2022-12-22T23:05:06.212Z,18.30
2022-12-22T23:07:32.699Z,17.80
2022-12-22T23:09:59.211Z,17.57
2022-12-22T23:12:25.897Z,23.13
2022-12-22T23:14:53.377Z,18.00
2022-12-22T23:17:19.864Z,12.63
2022-12-22T23:19:46.568Z,14.87
2022-12-22T23:22:13.038Z,14.13
2022-12-22T23:24:39.541Z,21.80
2022-12-22T23:27:06.063Z,15.53
2022-12-22T23:29:32.541Z,11.03
2022-12-22T23:31:59.198Z,15.20
2022-12-22T23:34:25.692Z,16.37
2022-12-22T23:36:52.177Z,16.13
2022-12-22T23:39:18.642Z,17.70
2022-12-22T23:41:45.234Z,21.80
2022-12-22T23:44:12.014Z,16.63
2022-12-22T23:46:39.308Z,17.53
2022-12-22T23:49:05.982Z,19.67
2022-12-22T23:51:32.522Z,14.67
2022-12-22T23:54:01.052Z,14.40
2022-12-22T23:56:29.401Z,17.80
2022-12-22T23:58:56.594Z,16.10
